Time;durP1;ratioP1;P1;durP2;ratioP2;P2;SDS_P1;SDS_P2;PMS_P1;PMS_P2;Temp;Humidity;BMP_temperature;BMP_pressure;BME280_temperature;BME280_humidity;BME280_pressure;Samples;Min_cycle;Max_cycle;Signal;HPM_P1;HPM_P2
2023/10/27 00:00:07;;;;;;;;;;;;;;;8.12;100.00;99050.63;4955510;28;20027;-80
2023/10/27 00:02:36;;;;;;;42.88;18.92;;;;;;;8.02;100.00;99046.59;4955833;28;19996;-80
2023/10/27 00:05:02;;;;;;;46.45;19.33;;;;;;;7.97;100.00;99051.81;4955291;28;20114;-80
2023/10/27 00:07:27;;;;;;;48.95;20.00;;;;;;;7.92;100.00;99043.66;4953659;28;20058;-80
2023/10/27 00:09:53;;;;;;;50.85;19.77;;;;;;;7.84;100.00;99043.94;4957521;28;20476;-80
2023/10/27 00:12:18;;;;;;;44.03;19.58;;;;;;;7.74;100.00;99042.59;4951740;28;20023;-80
2023/10/27 00:14:43;;;;;;;;;;;;;;;7.68;100.00;99048.84;4952163;28;20391;-80
2023/10/27 00:17:09;;;;;;;50.07;20.13;;;;;;;7.62;100.00;99048.91;4959176;28;19918;-81
2023/10/27 00:19:35;;;;;;;51.67;19.60;;;;;;;7.53;100.00;99032.31;4960470;28;20480;-80
2023/10/27 00:22:00;;;;;;;64.07;21.50;;;;;;;7.52;100.00;99039.53;4955322;28;20030;-80
2023/10/27 00:24:26;;;;;;;;;;;;;;;7.46;100.00;99035.06;4963162;28;20430;-81
2023/10/27 00:26:51;;;;;;;63.25;21.13;;;;;;;7.44;100.00;99029.91;4955937;28;19925;-80
2023/10/27 00:29:16;;;;;;;58.30;20.90;;;;;;;7.46;100.00;99031.56;4956300;28;20027;-80
2023/10/27 00:31:42;;;;;;;55.53;19.90;;;;;;;7.43;100.00;99028.28;4956594;28;20024;-80
2023/10/27 00:34:07;;;;;;;;;;;;;;;7.43;100.00;99041.66;4950769;28;20032;-80
2023/10/27 00:36:32;;;;;;;62.13;20.40;;;;;;;7.37;100.00;99031.88;4953964;28;19942;-81
2023/10/27 00:38:58;;;;;;;58.35;20.35;;;;;;;7.30;100.00;99033.78;4952561;28;20039;-80
2023/10/27 00:41:24;;;;;;;;;;;;;;;7.27;100.00;99039.56;4954163;28;20037;-81
2023/10/27 00:43:49;;;;;;;62.78;20.52;;;;;;;7.28;100.00;99035.84;4953079;28;19965;-81
2023/10/27 00:46:14;;;;;;;67.93;21.30;;;;;;;7.34;100.00;99043.00;4953629;28;20055;-81
2023/10/27 00:48:40;;;;;;;63.38;20.98;;;;;;;7.40;100.00;99035.94;4951493;28;20062;-81
2023/10/27 00:51:06;;;;;;;;;;;;;;;7.41;100.00;99035.72;4933595;29;20037;-81
2023/10/27 00:53:31;;;;;;;70.93;21.83;;;;;;;7.46;100.00;99032.41;4937060;28;19961;-81
2023/10/27 00:55:57;;;;;;;78.07;23.33;;;;;;;7.51;100.00;99035.19;4921829;29;20102;-81
2023/10/27 00:58:22;;;;;;;;;;;;;;;7.56;100.00;99031.88;4953676;28;20031;-81
2023/10/27 01:00:47;;;;;;;71.37;21.50;;;;;;;7.62;100.00;99022.94;4936020;29;19914;-81
2023/10/27 01:03:13;;;;;;;71.18;23.27;;;;;;;7.66;100.00;99029.50;4935354;29;20035;-81
2023/10/27 01:05:38;;;;;;;;;;;;;;;7.69;100.00;99021.03;4953866;28;20041;-81
2023/10/27 01:08:03;;;;;;;71.97;21.23;;;;;;;7.73;100.00;99027.56;4952726;28;20355;-81
2023/10/27 01:10:30;;;;;;;74.78;22.17;;;;;;;7.73;100.00;99024.91;4936928;29;20523;-81
2023/10/27 01:12:56;;;;;;;71.82;22.60;;;;;;;7.76;100.00;99028.16;4951480;28;20031;-81
2023/10/27 01:15:21;;;;;;;68.97;21.48;;;;;;;7.77;100.00;99016.38;4954097;28;20046;-81
2023/10/27 01:17:46;;;;;;;;;;;;;;;7.77;100.00;99021.75;4946332;28;20023;-81
2023/10/27 01:20:12;;;;;;;68.87;20.87;;;;;;;7.78;100.00;99021.53;4947689;28;20323;-80
2023/10/27 01:22:42;;;;;;;68.88;21.90;;;;;;;7.78;100.00;99026.06;4951170;28;20424;-80
2023/10/27 01:25:08;;;;;;;72.47;22.83;;;;;;;7.82;100.00;99017.38;4927873;29;20089;-80
2023/10/27 01:27:33;;;;;;;70.63;22.20;;;;;;;7.84;100.00;99017.13;4952527;28;20039;-80
2023/10/27 01:29:59;;;;;;;70.75;22.83;;;;;;;7.86;100.00;99021.22;4950899;28;20094;-80
2023/10/27 01:32:24;;;;;;;;;;;;;;;7.88;100.00;99026.38;4947625;28;20391;-80
2023/10/27 01:34:49;;;;;;;67.10;21.70;;;;;;;7.85;100.00;99024.13;4953544;28;20005;-80
2023/10/27 01:37:18;;;;;;;63.67;22.45;;;;;;;7.90;100.00;99018.94;4953357;28;20051;-80
2023/10/27 01:39:45;;;;;;;67.05;21.98;;;;;;;7.92;100.00;99016.00;4953489;28;20484;-81
2023/10/27 01:42:11;;;;;;;62.10;21.38;;;;;;;7.93;100.00;99015.81;4952533;28;20047;-80
2023/10/27 01:44:36;;;;;;;66.22;22.25;;;;;;;7.95;100.00;99013.69;4952395;28;20035;-80
2023/10/27 01:47:02;;;;;;;67.90;22.92;;;;;;;7.92;100.00;99006.13;4953304;28;20369;-80
2023/10/27 01:49:30;;;;;;;;;;;;;;;7.92;100.00;99007.97;4953870;28;20043;-80
2023/10/27 01:51:55;;;;;;;63.55;22.25;;;;;;;7.94;100.00;99001.38;4948294;28;19969;-80
2023/10/27 01:54:20;;;;;;;70.85;22.42;;;;;;;7.92;100.00;99006.13;4948054;28;20039;-80
2023/10/27 01:56:46;;;;;;;;;;;;;;;7.97;100.00;99005.44;4951718;28;20023;-80
2023/10/27 01:59:11;;;;;;;56.90;20.07;;;;;;;7.99;100.00;99003.38;4947255;28;20025;-80
2023/10/27 02:01:37;;;;;;;63.25;21.95;;;;;;;7.99;100.00;98995.31;4952448;28;20038;-80
2023/10/27 02:04:02;;;;;;;66.82;22.65;;;;;;;7.98;100.00;98991.81;4950896;28;20057;-80
2023/10/27 02:06:28;;;;;;;65.47;21.35;;;;;;;7.98;100.00;98986.44;4952064;28;20027;-81
2023/10/27 02:08:53;;;;;;;;;;;;;;;7.95;100.00;98991.47;4949961;28;20378;-81
2023/10/27 02:11:19;;;;;;;59.77;21.30;;;;;;;7.94;100.00;98990.66;4951592;28;19925;-80
2023/10/27 02:13:44;;;;;;;;;;;;;;;7.94;100.00;98995.19;4944914;28;20381;-80
2023/10/27 02:16:10;;;;;;;60.47;21.10;;;;;;;7.92;100.00;98989.22;4948691;28;19922;-80
2023/10/27 02:18:35;;;;;;;;;;;;;;;7.92;100.00;98990.06;4955462;28;20298;-80
2023/10/27 02:21:00;;;;;;;65.73;21.60;;;;;;;7.94;100.00;98993.34;4952163;28;20253;-80
2023/10/27 02:23:26;;;;;;;66.47;22.05;;;;;;;7.94;100.00;99004.06;4949228;28;20408;-80
2023/10/27 02:25:51;;;;;;;;;;;;;;;7.96;100.00;98987.75;4949115;28;20038;-80
2023/10/27 02:28:17;;;;;;;60.95;21.25;;;;;;;7.98;100.00;98986.44;4946245;28;19922;-80
2023/10/27 02:30:42;;;;;;;59.70;22.38;;;;;;;7.97;100.00;98990.19;4952612;28;20028;-81
2023/10/27 02:33:07;;;;;;;;;;;;;;;7.98;100.00;98991.00;4934784;29;20484;-81
2023/10/27 02:35:32;;;;;;;57.43;21.57;;;;;;;8.01;100.00;98988.69;4943745;28;19926;-80
2023/10/27 02:37:58;;;;;;;57.13;20.55;;;;;;;8.01;100.00;98991.38;4954556;28;20033;-80
2023/10/27 02:40:23;;;;;;;;;;;;;;;8.02;100.00;99000.25;4948918;28;20028;-81
2023/10/27 02:42:49;;;;;;;57.00;21.30;;;;;;;8.04;100.00;98996.28;4954097;28;19919;-80
2023/10/27 02:45:17;;;;;;;53.70;20.90;;;;;;;8.05;100.00;98989.03;4952917;28;20039;-80
2023/10/27 02:47:42;;;;;;;53.40;21.08;;;;;;;8.08;100.00;98990.47;4953961;28;20023;-78
2023/10/27 02:50:08;;;;;;;54.78;20.38;;;;;;;8.04;100.00;98985.56;4954525;28;20049;-78
2023/10/27 02:52:33;;;;;;;;;;;;;;;8.07;100.00;98988.84;4956103;28;20042;-78
2023/10/27 02:54:59;;;;;;;50.00;19.17;;;;;;;8.08;100.00;98987.78;4956350;28;19918;-79
2023/10/27 02:57:24;;;;;;;51.97;20.67;;;;;;;8.08;100.00;98990.47;4955886;28;20054;-79
2023/10/27 02:59:49;;;;;;;54.25;21.02;;;;;;;8.05;100.00;98981.00;4955217;23;20536;-78
2023/10/27 03:02:15;;;;;;;;;;;;;;;8.04;100.00;98985.56;4962648;28;20027;-78
2023/10/27 03:08:53;;;;;;;52.28;20.10;;;;;;;8.06;100.00;98979.97;5076510;23;20518;-79
2023/10/27 03:11:18;;;;;;;52.92;20.27;;;;;;;8.04;100.00;98972.16;4971289;28;20045;-79
2023/10/27 03:13:44;;;;;;;53.95;20.60;;;;;;;8.08;100.00;98974.41;4956472;28;20019;-79
2023/10/27 03:16:09;;;;;;;;;;;;;;;8.11;100.00;98979.31;4968010;28;20035;-79
2023/10/27 03:18:37;;;;;;;49.63;20.07;;;;;;;8.13;100.00;98971.81;4972220;28;19918;-79
2023/10/27 03:21:12;;;;;;;50.40;19.95;;;;;;;8.13;100.00;98961.94;4973315;28;20790;-79
2023/10/27 03:23:46;;;;;;;47.95;20.00;;;;;;;8.14;100.00;98965.44;4973840;28;20030;-79
2023/10/27 03:26:14;;;;;;;54.65;20.42;;;;;;;8.09;100.00;98965.31;4964051;28;20055;-80
2023/10/27 03:28:41;;;;;;;48.17;20.55;;;;;;;8.15;100.00;98969.75;4967548;28;20110;-79
2023/10/27 03:31:08;;;;;;;54.30;20.92;;;;;;;8.13;100.00;98966.47;4966733;28;20166;-79
2023/10/27 03:33:39;;;;;;;54.78;20.60;;;;;;;8.13;100.00;98969.16;4961991;28;20058;-80
2023/10/27 03:36:04;;;;;;;47.65;20.20;;;;;;;8.17;100.00;98967.66;4967463;28;20064;-78
2023/10/27 03:38:30;;;;;;;50.85;20.73;;;;;;;8.15;100.00;98967.91;4973135;28;20030;-79
2023/10/27 03:40:55;;;;;;;;;;;;;;;8.16;100.00;98960.66;4971285;28;20038;-78
2023/10/27 03:43:21;;;;;;;49.83;19.93;;;;;;;8.14;100.00;98962.75;4962549;28;20366;-78
2023/10/27 03:45:47;;;;;;;51.72;20.15;;;;;;;8.16;100.00;98963.34;4969326;28;20047;-78
2023/10/27 03:48:14;;;;;;;52.75;20.38;;;;;;;8.18;100.00;98958.56;4973140;28;20027;-79
2023/10/27 03:50:39;;;;;;;52.53;21.08;;;;;;;8.17;100.00;98967.66;4978227;28;20047;-79
2023/10/27 03:53:04;;;;;;;51.72;19.80;;;;;;;8.16;100.00;98966.03;4979635;28;20031;-79
2023/10/27 03:55:30;;;;;;;;;;;;;;;8.20;100.00;98961.84;4975646;28;20506;-79
2023/10/27 03:57:55;;;;;;;49.90;20.10;;;;;;;8.20;100.00;98961.84;4977696;28;20021;-80
2023/10/27 04:00:20;;;;;;;50.33;20.20;;;;;;;8.21;100.00;98960.81;4967010;28;20037;-80
2023/10/27 04:02:46;;;;;;;49.63;20.65;;;;;;;8.21;100.00;98960.81;4974541;28;20532;-80
2023/10/27 04:05:11;;;;;;;;;;;;;;;8.21;100.00;98963.47;4968718;28;20022;-80
2023/10/27 04:07:36;;;;;;;46.00;19.53;;;;;;;8.23;100.00;98955.19;4966572;28;19914;-79
2023/10/27 04:10:04;;;;;;;;;;;;;;;8.22;100.00;98953.56;4960236;28;20299;-79
2023/10/27 04:15:08;;;;;;;52.97;20.60;;;;;;;8.21;100.00;98955.44;4981679;23;20235;-79
2023/10/27 04:17:36;;;;;;;49.50;20.38;;;;;;;8.19;100.00;98944.13;4987824;28;20095;-80
2023/10/27 04:20:03;;;;;;;51.45;20.25;;;;;;;8.22;100.00;98954.41;4986682;28;20049;-80
2023/10/27 04:22:29;;;;;;;50.30;20.30;;;;;;;8.21;100.00;98947.41;4978277;28;20031;-80
2023/10/27 04:24:56;;;;;;;54.53;21.45;;;;;;;8.22;100.00;98949.03;4970105;28;20035;-80
2023/10/27 04:27:21;;;;;;;53.80;20.45;;;;;;;8.21;100.00;98947.41;4951041;28;20035;-79
2023/10/27 04:29:49;;;;;;;56.25;21.40;;;;;;;8.21;100.00;98947.41;4962701;28;20480;-80
2023/10/27 04:32:15;;;;;;;61.28;21.70;;;;;;;8.23;100.00;98944.47;4960942;28;20523;-80
2023/10/27 04:34:51;;;;;;;54.47;20.60;;;;;;;8.21;100.00;98944.72;4970735;28;20042;-80
2023/10/27 04:37:30;;;;;;;56.37;21.40;;;;;;;8.20;100.00;98945.75;4973807;28;20483;-81
2023/10/27 04:39:56;;;;;;;59.40;20.73;;;;;;;8.17;100.00;98941.69;4974175;28;20029;-81
2023/10/27 04:42:22;;;;;;;57.70;21.55;;;;;;;8.21;100.00;98947.41;4963473;28;20034;-81
2023/10/27 04:44:48;;;;;;;55.17;20.50;;;;;;;8.20;100.00;98940.41;4970033;28;20026;-81
2023/10/27 04:47:13;;;;;;;54.60;20.85;;;;;;;8.19;100.00;98941.44;4965300;28;20039;-81
2023/10/27 04:49:38;;;;;;;53.15;20.23;;;;;;;8.18;100.00;98947.84;4961180;28;20042;-81
2023/10/27 04:52:05;;;;;;;56.17;21.13;;;;;;;8.17;100.00;98943.53;4968885;28;20041;-81
2023/10/27 04:54:31;;;;;;;62.13;21.52;;;;;;;8.14;100.00;98941.31;4963115;28;20392;-81
2023/10/27 04:56:56;;;;;;;59.45;20.25;;;;;;;8.15;100.00;98933.06;4961538;28;20031;-81
2023/10/27 04:59:22;;;;;;;62.30;22.70;;;;;;;8.15;100.00;98937.56;4973944;28;20023;-81
2023/10/27 05:01:47;;;;;;;;;;;;;;;8.15;100.00;98941.09;4962732;28;20054;-81
2023/10/27 05:04:18;;;;;;;54.63;20.27;;;;;;;8.17;100.00;98932.81;5043611;23;19933;-82
2023/10/27 05:06:44;;;;;;;59.88;21.35;;;;;;;8.16;100.00;98934.69;4973208;28;20034;-81
2023/10/27 05:09:10;;;;;;;56.20;20.98;;;;;;;8.17;100.00;98927.44;4966928;28;20549;-80
2023/10/27 05:11:36;;;;;;;58.33;21.17;;;;;;;8.18;100.00;98926.41;4970541;28;20036;-81
2023/10/27 05:14:02;;;;;;;59.97;21.95;;;;;;;8.19;100.00;98933.41;4971529;28;20027;-81
2023/10/27 05:16:27;;;;;;;50.38;20.00;;;;;;;8.21;100.00;98928.63;4973349;28;20034;-81
2023/10/27 05:18:53;;;;;;;55.42;20.60;;;;;;;8.19;100.00;98936.09;4970116;28;20088;-81
2023/10/27 05:21:19;;;;;;;58.75;21.38;;;;;;;8.17;100.00;98930.97;4972445;28;20026;-81
2023/10/27 05:23:45;;;;;;;50.70;20.50;;;;;;;8.20;100.00;98929.69;4973809;28;20026;-81
2023/10/27 05:26:10;;;;;;;54.33;20.58;;;;;;;8.19;100.00;98928.03;4972963;28;20053;-81
2023/10/27 05:28:35;;;;;;;57.67;20.85;;;;;;;8.18;100.00;98921.88;4970895;28;20506;-81
2023/10/27 05:31:01;;;;;;;52.92;20.10;;;;;;;8.18;100.00;98915.69;4973391;28;20033;-81
2023/10/27 05:33:26;;;;;;;;;;;;;;;8.19;100.00;98920.84;4968151;28;20039;-81
2023/10/27 05:35:52;;;;;;;51.17;19.05;;;;;;;8.18;100.00;98923.72;4973183;28;19921;-81
2023/10/27 05:38:18;;;;;;;47.10;19.13;;;;;;;8.21;100.00;98925.97;4955553;28;20480;-81
2023/10/27 05:40:43;;;;;;;49.05;19.25;;;;;;;8.20;100.00;98929.69;4973264;28;20498;-81
2023/10/27 05:43:08;;;;;;;53.28;20.10;;;;;;;8.21;100.00;98928.63;4972836;28;20103;-82
2023/10/27 05:45:34;;;;;;;46.85;19.05;;;;;;;8.22;100.00;98924.91;4972647;28;20034;-81
2023/10/27 05:47:59;;;;;;;48.13;18.88;;;;;;;8.20;100.00;98929.69;4974539;28;20018;-81
2023/10/27 05:50:24;;;;;;;50.67;19.25;;;;;;;8.19;100.00;98928.03;4970153;28;20027;-82
2023/10/27 05:52:50;;;;;;;51.55;19.55;;;;;;;8.15;100.00;98919.66;4974313;28;20041;-81
2023/10/27 05:55:15;;;;;;;49.38;19.35;;;;;;;8.14;100.00;98920.69;4969648;28;20031;-81
2023/10/27 05:57:41;;;;;;;48.72;18.98;;;;;;;8.14;100.00;98920.69;4971541;28;21656;-81
2023/10/27 06:00:07;;;;;;;50.28;18.77;;;;;;;8.14;100.00;98917.19;4970526;28;20034;-81
2023/10/27 06:02:33;;;;;;;51.15;20.13;;;;;;;8.15;100.00;98921.50;4972930;28;20030;-82
2023/10/27 06:04:58;;;;;;;48.70;18.45;;;;;;;8.14;100.00;98919.84;4971715;28;20093;-81
2023/10/27 06:07:23;;;;;;;;;;;;;;;8.15;100.00;98922.34;4973713;28;20037;-81
2023/10/27 06:09:49;;;;;;;44.50;17.77;;;;;;;8.17;100.00;98924.78;4972499;28;19925;-81
2023/10/27 06:12:16;;;;;;;45.88;18.52;;;;;;;8.16;100.00;98923.97;4972707;28;20030;-81
2023/10/27 06:14:45;;;;;;;46.30;19.35;;;;;;;8.16;100.00;98928.50;4968114;28;20089;-81
2023/10/27 06:17:14;;;;;;;46.38;18.98;;;;;;;8.15;100.00;98927.69;4972251;28;20109;-81
2023/10/27 06:19:42;;;;;;;47.33;19.00;;;;;;;8.16;100.00;98923.13;4962373;28;20027;-80
2023/10/27 06:22:09;;;;;;;43.97;17.80;;;;;;;8.16;100.00;98923.97;4970843;28;20626;-80
2023/10/27 06:24:34;;;;;;;45.58;18.63;;;;;;;8.17;100.00;98935.50;4967244;28;20382;-82
2023/10/27 06:27:00;;;;;;;46.60;18.08;;;;;;;8.16;100.00;98936.53;4966135;28;20031;-82
2023/10/27 06:29:27;;;;;;;;;;;;;;;8.13;100.00;98928.94;4967897;28;20407;-82
2023/10/27 06:31:52;;;;;;;41.90;16.40;;;;;;;8.16;100.00;98931.19;4970312;28;19925;-82
2023/10/27 06:34:18;;;;;;;;;;;;;;;8.16;100.00;98931.19;4970603;28;20023;-82
2023/10/27 06:36:43;;;;;;;45.17;17.20;;;;;;;8.14;100.00;98926.06;4972574;28;19918;-81
2023/10/27 06:39:08;;;;;;;48.80;17.95;;;;;;;8.17;100.00;98932.81;4970840;28;20050;-79
2023/10/27 06:41:34;;;;;;;;;;;;;;;8.17;100.00;98930.97;4971787;28;20033;-79
2023/10/27 06:44:00;;;;;;;44.70;16.77;;;;;;;8.22;100.00;98937.47;4971146;28;19953;-80
2023/10/27 06:46:25;;;;;;;40.42;17.88;;;;;;;8.23;100.00;98937.28;4974171;28;20062;-78
2023/10/27 06:48:51;;;;;;;44.83;17.25;;;;;;;8.25;100.00;98939.72;4973829;28;20027;-79
2023/10/27 06:51:17;;;;;;;45.00;17.42;;;;;;;8.25;100.00;98940.53;4977139;28;20141;-80
2023/10/27 06:53:43;;;;;;;39.65;17.48;;;;;;;8.27;100.00;98935.78;4966469;28;20122;-81
2023/10/27 06:56:08;;;;;;;38.88;17.40;;;;;;;8.30;100.00;98939.84;4972411;28;20093;-81
2023/10/27 06:58:33;;;;;;;41.95;17.17;;;;;;;8.30;100.00;98940.66;4964556;28;20533;-81
2023/10/27 07:01:08;;;;;;;39.03;17.40;;;;;;;8.32;100.00;98943.91;4965712;28;20471;-81
2023/10/27 07:03:35;;;;;;;37.05;16.63;;;;;;;8.32;100.00;98938.56;4963903;28;20038;-82
2023/10/27 07:06:00;;;;;;;42.47;17.02;;;;;;;8.33;100.00;98939.41;4967446;28;20062;-82
2023/10/27 07:08:26;;;;;;;36.92;15.93;;;;;;;8.32;100.00;98943.91;4961925;28;20376;-82
2023/10/27 07:10:57;;;;;;;38.22;16.90;;;;;;;8.32;100.00;98935.06;4968587;28;20026;-83
2023/10/27 07:13:25;;;;;;;37.83;16.25;;;;;;;8.34;100.00;98931.09;4969852;28;20122;-82
2023/10/27 07:15:50;;;;;;;38.42;16.52;;;;;;;8.32;100.00;98938.56;4970405;28;20043;-81
2023/10/27 07:18:19;;;;;;;36.50;16.38;;;;;;;8.31;100.00;98942.28;4967933;28;20045;-82
2023/10/27 07:20:44;;;;;;;35.30;15.10;;;;;;;8.39;100.00;98943.00;4967506;28;20031;-83
2023/10/27 07:23:10;;;;;;;40.05;17.10;;;;;;;8.39;100.00;98940.34;4971749;28;20027;-83
2023/10/27 07:25:35;;;;;;;34.03;15.15;;;;;;;8.42;100.00;98931.84;4973319;28;20456;-83
2023/10/27 07:28:01;;;;;;;34.85;15.27;;;;;;;8.39;100.00;98929.59;4971784;28;20408;-83
2023/10/27 07:30:26;;;;;;;32.67;14.90;;;;;;;8.40;100.00;98934.72;4969548;28;20031;-82
2023/10/27 07:32:51;;;;;;;32.33;15.60;;;;;;;8.39;100.00;98943.00;4970134;28;20504;-83
2023/10/27 07:35:17;;;;;;;31.23;14.50;;;;;;;8.43;100.00;98944.19;4978206;28;20133;-83
2023/10/27 07:37:42;;;;;;;;;;;;;;;8.40;100.00;98947.34;4970987;28;20494;-83
2023/10/27 07:40:08;;;;;;;28.47;14.00;;;;;;;8.38;100.00;98947.56;4970886;28;19918;-82
2023/10/27 07:42:33;;;;;;;36.30;15.10;;;;;;;8.38;100.00;98947.56;4972879;28;21198;-81
2023/10/27 07:44:59;;;;;;;30.95;14.05;;;;;;;8.42;100.00;98939.88;4972242;28;20031;-82
2023/10/27 07:47:24;;;;;;;30.13;14.50;;;;;;;8.44;100.00;98945.84;4957085;28;20505;-81
2023/10/27 07:50:00;;;;;;;25.67;13.60;;;;;;;8.46;100.00;98943.75;4976889;28;20023;-82
2023/10/27 07:52:28;;;;;;;25.40;13.18;;;;;;;8.48;100.00;98947.00;4970747;28;20057;-81
2023/10/27 07:54:53;;;;;;;26.63;13.50;;;;;;;8.46;100.00;98949.09;4970895;28;20441;-82
2023/10/27 07:57:19;;;;;;;23.88;13.15;;;;;;;8.46;100.00;98946.44;4973738;28;20114;-80
2023/10/27 07:59:45;;;;;;;26.67;13.48;;;;;;;8.45;100.00;98947.47;4969436;28;20030;-80
2023/10/27 08:02:10;;;;;;;23.60;12.52;;;;;;;8.49;100.00;98946.81;4974266;28;20448;-80
2023/10/27 08:04:37;;;;;;;27.23;13.80;;;;;;;8.46;100.00;98944.53;4972667;28;20216;-80
2023/10/27 08:07:05;;;;;;;21.92;12.48;;;;;;;8.47;100.00;98956.09;4973769;28;20053;-80
2023/10/27 08:09:31;;;;;;;23.77;12.90;;;;;;;8.50;100.00;98950.28;4973007;28;20139;-80
2023/10/27 08:11:56;;;;;;;23.73;13.02;;;;;;;8.51;100.00;98946.56;4973738;28;20504;-80
2023/10/27 08:14:21;;;;;;;21.90;12.40;;;;;;;8.53;100.00;98955.19;4971660;28;20101;-81
2023/10/27 08:16:47;;;;;;;25.73;12.95;;;;;;;8.53;100.00;98951.72;4974024;28;20037;-81
2023/10/27 08:19:12;;;;;;;23.48;12.60;;;;;;;8.56;100.00;98945.88;4979939;28;20084;-81
2023/10/27 08:21:38;;;;;;;21.85;12.23;;;;;;;8.56;100.00;98945.88;4976500;28;20384;-81
2023/10/27 08:24:05;;;;;;;21.38;11.98;;;;;;;8.60;100.00;98953.25;4972976;28;20019;-81
2023/10/27 08:26:33;;;;;;;22.45;12.35;;;;;;;8.55;100.00;98953.09;4974586;28;20483;-81
2023/10/27 08:28:58;;;;;;;24.13;12.98;;;;;;;8.60;100.00;98950.56;4973425;28;20026;-81
2023/10/27 08:31:24;;;;;;;21.80;12.25;;;;;;;8.56;100.00;98952.06;4973461;28;20472;-80
2023/10/27 08:33:52;;;;;;;19.48;11.35;;;;;;;8.66;100.00;98948.81;4968789;28;20023;-81
2023/10/27 08:36:17;;;;;;;21.13;11.95;;;;;;;8.69;100.00;98951.03;4971130;28;20131;-81
2023/10/27 08:38:42;;;;;;;18.83;11.50;;;;;;;8.75;100.00;98954.66;4972281;28;20044;-81
2023/10/27 08:41:08;;;;;;;21.70;12.20;;;;;;;8.72;100.00;98953.25;4967829;28;20023;-80
2023/10/27 08:43:34;;;;;;;21.77;12.18;;;;;;;8.74;100.00;98958.38;4954747;28;20476;-80
2023/10/27 08:46:03;;;;;;;23.27;12.60;;;;;;;8.78;100.00;98946.94;4972919;28;20031;-81
2023/10/27 08:48:28;;;;;;;22.45;12.23;;;;;;;8.79;100.00;98943.22;4954167;28;20030;-80
2023/10/27 08:50:55;;;;;;;20.42;12.02;;;;;;;8.74;100.00;98953.00;4971013;28;20031;-79
2023/10/27 08:53:20;;;;;;;20.70;11.90;;;;;;;8.74;100.00;98951.13;4938526;28;20039;-80
2023/10/27 08:55:48;;;;;;;20.95;12.35;;;;;;;8.79;100.00;98953.16;4960007;28;20388;-79
2023/10/27 08:58:20;;;;;;;20.65;11.95;;;;;;;8.80;100.00;98950.22;4968148;28;20127;-80
2023/10/27 09:00:48;;;;;;;19.10;11.40;;;;;;;8.82;100.00;98958.06;4972177;28;20116;-81
2023/10/27 09:03:17;;;;;;;17.63;11.45;;;;;;;8.86;100.00;98958.41;4969041;28;20046;-82
2023/10/27 09:05:42;;;;;;;17.83;11.35;;;;;;;8.87;100.00;98960.03;4952656;28;20042;-82
2023/10/27 09:08:09;;;;;;;18.85;11.88;;;;;;;8.84;100.00;98955.13;4971925;28;20054;-82
2023/10/27 09:10:34;;;;;;;20.33;11.82;;;;;;;8.82;100.00;98951.84;4967657;28;20030;-82
2023/10/27 09:13:05;;;;;;;18.60;10.98;;;;;;;8.83;100.00;98954.28;4969714;28;20058;-82
2023/10/27 09:16:16;;;;;;;17.75;10.77;;;;;;;8.89;100.00;98956.06;4971542;28;20505;-82
2023/10/27 09:18:51;;;;;;;17.98;11.18;;;;;;;8.85;100.00;98957.56;4862681;29;20510;-80
2023/10/27 09:21:32;;;;;;;15.45;10.70;;;;;;;8.97;100.00;98959.44;4971416;28;20034;-81
2023/10/27 09:24:04;;;;;;;15.00;10.07;;;;;;;8.94;100.00;98960.72;4970516;28;20039;-81
2023/10/27 09:27:09;;;;;;;13.93;10.07;;;;;;;9.10;100.00;98961.91;4972306;28;20027;-82
2023/10/27 09:35:28;;;;;;;14.45;10.23;;;;;;;9.20;100.00;98964.78;4992242;23;20175;-82
2023/10/27 09:38:12;;;;;;;13.57;9.85;;;;;;;9.22;100.00;98967.25;4929182;29;20039;-81
2023/10/27 09:40:41;;;;;;;14.32;9.88;;;;;;;9.22;100.00;98960.00;4953485;23;20522;-81
2023/10/27 09:43:18;;;;;;;;;;;;;;;;;;;;;
2023/10/27 09:46:06;;;;;;;11.93;8.60;;;;;;;9.18;100.00;98966.09;4974555;23;20049;-81
2023/10/27 09:48:59;;;;;;;10.98;9.00;;;;;;;9.16;100.00;98974.38;4938062;23;20059;-81
2023/10/27 09:51:48;;;;;;;12.57;9.20;;;;;;;9.20;100.00;98970.16;4950221;28;20070;-81
2023/10/27 09:54:32;;;;;;;12.70;9.00;;;;;;;9.16;100.00;98965.50;4936532;29;20027;-81
2023/10/27 09:57:16;;;;;;;10.48;8.52;;;;;;;9.19;100.00;98968.53;4943692;28;20027;-81
2023/10/27 09:59:42;;;;;;;11.52;8.43;;;;;;;9.23;100.00;98972.38;4979258;23;20641;-82
2023/10/27 10:02:43;;;;;;;11.13;8.60;;;;;;;9.33;100.00;98971.78;4931078;29;20118;-82
2023/10/27 10:05:14;;;;;;;11.13;8.55;;;;;;;9.34;100.00;98973.44;4909799;29;20152;-83
2023/10/27 10:07:44;;;;;;;10.18;8.27;;;;;;;9.30;100.00;98974.13;4939267;28;20455;-82
2023/10/27 10:10:40;;;;;;;11.85;8.95;;;;;;;9.35;100.00;98979.63;4936292;28;20037;-83
2023/10/27 10:13:12;;;;;;;10.90;8.70;;;;;;;9.32;100.00;98972.84;4936937;28;20473;-82
2023/10/27 10:15:54;;;;;;;10.23;8.63;;;;;;;9.35;100.00;98980.44;4933564;28;20192;-82
2023/10/27 10:18:25;;;;;;;10.13;8.40;;;;;;;9.39;100.00;98980.78;4919561;29;20035;-82
2023/10/27 10:21:00;;;;;;;11.40;9.10;;;;;;;9.48;100.00;98971.31;4942616;28;20036;-82
2023/10/27 10:23:38;;;;;;;10.35;8.30;;;;;;;9.56;100.00;98973.63;4949863;28;20039;-82
2023/10/27 10:26:03;;;;;;;9.02;8.13;;;;;;;9.45;100.00;98971.78;4938632;28;20560;-83
2023/10/27 10:28:36;;;;;;;9.85;8.27;;;;;;;9.61;100.00;98980.16;4939655;28;20110;-83
2023/10/27 10:31:52;;;;;;;10.15;8.77;;;;;;;9.67;100.00;98979.22;4942430;28;20058;-83
2023/10/27 10:34:55;;;;;;;9.95;7.90;;;;;;;9.89;100.00;98986.63;4890619;29;20092;-83
2023/10/27 10:37:36;;;;;;;9.82;7.88;;;;;;;10.07;100.00;98974.88;4943461;28;20042;-83
2023/10/27 10:40:36;;;;;;;10.38;8.30;;;;;;;10.02;100.00;98986.38;4934864;28;20404;-83
2023/10/27 10:43:37;;;;;;;8.40;7.50;;;;;;;10.17;100.00;98985.81;4916167;29;20032;-83
2023/10/27 10:46:03;;;;;;;8.82;7.93;;;;;;;10.11;100.00;98984.91;4934191;28;20039;-82
2023/10/27 10:49:00;;;;;;;9.30;8.30;;;;;;;10.02;100.00;98983.69;4955055;28;20039;-82
2023/10/27 10:51:37;;;;;;;9.57;8.20;;;;;;;10.00;100.00;98980.41;4930868;23;20580;-83
2023/10/27 10:54:27;;;;;;;9.38;8.38;;;;;;;10.12;100.00;98983.84;4875845;29;20304;-82
2023/10/27 10:57:08;;;;;;;9.95;8.27;;;;;;;10.20;100.00;98984.53;4915158;29;20035;-82
2023/10/27 10:59:39;;;;;;;9.55;8.55;;;;;;;10.15;100.00;98978.00;4917536;29;20035;-82
2023/10/27 11:05:00;;;;;;;10.23;9.07;;;;;;;10.11;100.00;98984.91;4980130;23;20063;-82
2023/10/27 11:07:53;;;;;;;10.77;9.02;;;;;;;10.15;100.00;98985.25;4970973;28;20042;-82
2023/10/27 11:10:40;;;;;;;11.30;8.98;;;;;;;10.23;100.00;98986.75;4965727;28;20035;-83
2023/10/27 11:13:52;;;;;;;9.50;8.32;;;;;;;10.21;100.00;98986.19;4971171;28;20038;-82
2023/10/27 11:16:27;;;;;;;10.88;9.30;;;;;;;10.22;100.00;98977.84;4964933;28;20126;-82
2023/10/27 11:18:54;;;;;;;10.02;8.98;;;;;;;10.16;100.00;98982.31;5019264;23;20054;-82
2023/10/27 11:21:56;;;;;;;10.35;8.60;;;;;;;10.21;100.00;98978.09;5362848;23;20081;-82
2023/10/27 11:24:55;;;;;;;11.63;9.32;;;;;;;10.19;100.00;98988.28;4968829;28;20046;-82
2023/10/27 11:27:54;;;;;;;10.82;8.85;;;;;;;10.23;100.00;98989.44;4974998;28;20126;-83
2023/10/27 11:30:41;;;;;;;10.70;8.45;;;;;;;10.28;100.00;98984.97;4977466;28;20027;-83
2023/10/27 11:33:08;;;;;;;9.95;8.57;;;;;;;10.35;100.00;98976.75;4986793;28;20026;-83
2023/10/27 11:38:40;;;;;;;10.27;9.27;;;;;;;10.43;100.00;98976.38;4937517;28;20074;-83
2023/10/27 11:41:13;;;;;;;10.75;9.65;;;;;;;10.52;100.00;98973.28;4970999;28;20298;-83
2023/10/27 11:43:50;;;;;;;10.20;9.10;;;;;;;10.44;100.00;98974.50;4957919;28;20038;-83
2023/10/27 11:46:22;;;;;;;11.98;10.68;;;;;;;10.51;100.00;98974.34;4975476;28;20088;-83
2023/10/27 11:48:59;;;;;;;11.43;9.68;;;;;;;10.43;100.00;98971.00;4973638;28;20031;-82
2023/10/27 11:52:03;;;;;;;11.98;9.65;;;;;;;10.52;100.00;98968.72;4972833;28;20058;-82
2023/10/27 11:54:37;;;;;;;10.00;8.98;;;;;;;10.71;100.00;98961.25;4927269;28;20228;-82
2023/10/27 12:00:08;;;;;;;10.55;9.02;;;;;;;10.74;100.00;98976.91;4988515;23;20140;-82